Pagrindinis puslapis
METAR-TAF:

METAR-TAF

Oro uostai :

Kuantan, Malaizija

platuma: 03-37N, ilguma: 103-13E, Aukštis: 18 m

Dabartinis oras

Ataskaita buvo paskelbta 29 minutes, ne 04:00 UTC
Vėjas 5 kt nuo kintamojo kryptimis
Temperatūra 30°C
Drėgmė 70%
Slėgis 1011 hPa
Matomumas 10 km arba daugiau
Mažai debesys ne aukštis 1900 ft

METAR: WMKD 290400Z VRB05KT 9999 FEW019 30/24 Q1011 NOSIG

Laikas: 12:29 (04:29 UTC)


TAF: trūkstamas

Orai ataskaitas ir orų prognozės (METAR, TAF).

turimą stotys yra geltonos ir raudonos taškus žemėlapyje.

Perkelti pele per norėdami pamatyti stoties vardą.

Tada spustelėkite, norėdami matyti oro stebėjimo ir prognozės.

Norėdami pakeisti žemėlapį: spustelėkite ant žalios mygtukų su juodo kryžiaus žemyn,; žalią mygtuką su brūkšneliu, jei norite nutolinti; arba žalių rodyklių gretimoms žemėlapius.


METAR-TAF: